createdAt,value
2018-09-25T00:00:17.405Z,1031.09
2018-09-25T00:01:17.420Z,1031.00
2018-09-25T00:02:17.429Z,1031.05
2018-09-25T00:03:17.444Z,1031.06
2018-09-25T00:04:17.453Z,1031.01
2018-09-25T00:05:17.474Z,1031.02
2018-09-25T00:06:17.482Z,1031.02
2018-09-25T00:07:17.511Z,1031.02
2018-09-25T00:08:17.500Z,1031.00
2018-09-25T00:09:17.513Z,1031.05
2018-09-25T00:10:17.574Z,1031.01
2018-09-25T00:11:17.538Z,1031.08
2018-09-25T00:12:17.546Z,1031.05
2018-09-25T00:13:17.560Z,1031.03
2018-09-25T00:14:17.568Z,1031.06
2018-09-25T00:15:17.580Z,1031.07
2018-09-25T00:16:17.599Z,1030.97
2018-09-25T00:17:17.615Z,1031.00
2018-09-25T00:18:17.616Z,1031.01
2018-09-25T00:19:17.626Z,1031.01
2018-09-25T00:20:17.845Z,1031.05
2018-09-25T00:21:17.650Z,1031.04
2018-09-25T00:22:17.709Z,1031.01
2018-09-25T00:23:17.671Z,1031.05
2018-09-25T00:24:17.685Z,1031.07
2018-09-25T00:25:17.698Z,1031.07
2018-09-25T00:26:17.710Z,1031.11
2018-09-25T00:27:17.743Z,1031.10
2018-09-25T00:28:17.729Z,1031.04
2018-09-25T00:29:17.748Z,1031.05
2018-09-25T00:30:17.756Z,1031.08
2018-09-25T00:31:17.767Z,1031.10
2018-09-25T00:32:17.777Z,1031.06
2018-09-25T00:33:17.788Z,1031.03
2018-09-25T00:34:17.816Z,1031.01
2018-09-25T00:35:17.810Z,1031.07
2018-09-25T00:36:17.820Z,1031.09
2018-09-25T00:37:17.831Z,1031.06
2018-09-25T00:38:17.842Z,1031.09
2018-09-25T00:39:17.857Z,1031.06
2018-09-25T00:40:17.867Z,1031.04
2018-09-25T00:41:17.879Z,1031.04
2018-09-25T00:42:17.887Z,1031.04
2018-09-25T00:43:17.902Z,1031.07
2018-09-25T00:44:17.912Z,1031.08
2018-09-25T00:45:17.923Z,1031.13
2018-09-25T00:46:17.933Z,1031.14
2018-09-25T00:47:17.945Z,1031.22
2018-09-25T00:48:17.958Z,1031.14
2018-09-25T00:49:17.969Z,1031.17
2018-09-25T00:50:17.980Z,1031.15
2018-09-25T00:51:18.003Z,1031.18
2018-09-25T00:52:18.002Z,1031.18
2018-09-25T00:54:18.044Z,1031.18
2018-09-25T00:55:18.036Z,1031.20
2018-09-25T00:56:18.048Z,1031.21
2018-09-25T00:57:18.084Z,1031.22
2018-09-25T00:58:18.079Z,1031.24
2018-09-25T00:59:18.081Z,1031.25
2018-09-25T01:00:18.094Z,1031.25
2018-09-25T01:01:18.104Z,1031.28
2018-09-25T01:02:18.128Z,1031.27
2018-09-25T01:03:18.126Z,1031.24
2018-09-25T01:04:18.139Z,1031.26
2018-09-25T01:05:18.150Z,1031.22
2018-09-25T01:06:18.160Z,1031.22
2018-09-25T01:07:18.173Z,1031.22
2018-09-25T01:08:18.185Z,1031.25
2018-09-25T01:09:18.196Z,1031.22
2018-09-25T01:10:18.205Z,1031.26
2018-09-25T01:11:18.239Z,1031.24
2018-09-25T01:12:18.229Z,1031.23
2018-09-25T01:13:18.241Z,1031.29
2018-09-25T01:14:18.251Z,1031.29
2018-09-25T01:15:18.263Z,1031.28
2018-09-25T01:16:18.275Z,1031.27
2018-09-25T01:17:18.313Z,1031.27
2018-09-25T01:18:18.300Z,1031.29
2018-09-25T01:19:18.445Z,1031.32
2018-09-25T01:20:18.320Z,1031.29
2018-09-25T01:21:18.338Z,1031.24
2018-09-25T01:22:18.354Z,1031.27
2018-09-25T01:23:18.354Z,1031.28
2018-09-25T01:24:18.364Z,1031.27
2018-09-25T01:27:18.918Z,1031.33
2018-09-25T01:28:18.413Z,1031.37
2018-09-25T01:29:18.422Z,1031.34
2018-09-25T01:30:18.437Z,1031.32
2018-09-25T01:31:18.444Z,1031.34
2018-09-25T01:32:18.458Z,1031.31
2018-09-25T01:33:18.474Z,1031.32
2018-09-25T01:34:18.480Z,1031.31
2018-09-25T01:35:18.495Z,1031.35
2018-09-25T01:36:18.502Z,1031.33
2018-09-25T01:37:18.515Z,1031.33
2018-09-25T01:38:18.525Z,1031.34
2018-09-25T01:39:18.535Z,1031.37
2018-09-25T01:40:18.554Z,1031.34
2018-09-25T01:41:18.558Z,1031.35
2018-09-25T01:42:18.569Z,1031.34
2018-09-25T01:43:18.583Z,1031.35
2018-09-25T01:44:18.619Z,1031.37
2018-09-25T01:45:18.613Z,1031.34
2018-09-25T01:46:18.616Z,1031.38
2018-09-25T01:47:18.631Z,1031.38
2018-09-25T01:48:18.643Z,1031.37
2018-09-25T01:49:18.651Z,1031.37
2018-09-25T01:50:18.663Z,1031.39
2018-09-25T01:51:18.733Z,1031.33
2018-09-25T01:52:18.691Z,1031.37
2018-09-25T01:53:18.701Z,1031.33
2018-09-25T01:54:18.728Z,1031.34
2018-09-25T01:55:18.733Z,1031.34
2018-09-25T01:56:18.730Z,1031.31
2018-09-25T01:57:18.794Z,1031.33
2018-09-25T01:58:19.057Z,1031.36
2018-09-25T01:59:19.068Z,1031.32
2018-09-25T02:00:18.787Z,1031.34
2018-09-25T02:01:18.804Z,1031.33
2018-09-25T02:02:18.799Z,1031.36
2018-09-25T02:03:18.811Z,1031.38
2018-09-25T02:04:18.822Z,1031.38
2018-09-25T02:05:18.835Z,1031.39
2018-09-25T02:06:18.846Z,1031.34
2018-09-25T02:07:18.858Z,1031.36
2018-09-25T02:08:18.867Z,1031.37
2018-09-25T02:09:18.912Z,1031.40
2018-09-25T02:10:18.907Z,1031.42
2018-09-25T02:11:18.955Z,1031.41
2018-09-25T02:12:18.916Z,1031.42
2018-09-25T02:13:18.929Z,1031.43
2018-09-25T02:14:18.937Z,1031.40
2018-09-25T02:15:18.949Z,1031.46
2018-09-25T02:16:18.960Z,1031.49
2018-09-25T02:17:18.975Z,1031.49
2018-09-25T02:18:18.983Z,1031.52
2018-09-25T02:19:19.023Z,1031.45
2018-09-25T02:20:19.006Z,1031.50
2018-09-25T02:21:19.025Z,1031.52
2018-09-25T02:22:19.028Z,1031.52
2018-09-25T02:23:19.349Z,1031.49
2018-09-25T02:24:19.054Z,1031.46
2018-09-25T02:25:19.084Z,1031.51
2018-09-25T02:26:19.074Z,1031.51
2018-09-25T02:27:19.115Z,1031.52
2018-09-25T02:28:19.148Z,1031.51
2018-09-25T02:29:19.108Z,1031.54
2018-09-25T02:30:19.123Z,1031.54
2018-09-25T02:31:19.388Z,1031.57
2018-09-25T02:33:19.731Z,1031.57
2018-09-25T02:34:19.635Z,1031.56
2018-09-25T02:35:19.201Z,1031.57
2018-09-25T02:36:19.192Z,1031.58
2018-09-25T02:37:19.204Z,1031.60
2018-09-25T02:38:19.215Z,1031.61
2018-09-25T02:39:19.227Z,1031.58
2018-09-25T02:41:19.245Z,1031.61
2018-09-25T02:42:19.256Z,1031.64
2018-09-25T02:43:19.267Z,1031.59
2018-09-25T02:44:19.283Z,1031.55
2018-09-25T02:45:19.291Z,1031.55
2018-09-25T02:46:19.300Z,1031.56
2018-09-25T02:47:19.350Z,1031.57
2018-09-25T02:48:19.356Z,1031.57
2018-09-25T02:49:19.343Z,1031.57
2018-09-25T02:50:19.358Z,1031.55
2018-09-25T02:51:19.358Z,1031.53
2018-09-25T02:52:19.369Z,1031.54
2018-09-25T02:53:19.387Z,1031.57
2018-09-25T02:54:19.405Z,1031.53
2018-09-25T02:55:19.403Z,1031.55
2018-09-25T02:56:19.417Z,1031.57
2018-09-25T02:57:19.446Z,1031.57
2018-09-25T02:58:19.442Z,1031.58
2018-09-25T02:59:19.454Z,1031.56
2018-09-25T03:00:19.462Z,1031.64
2018-09-25T03:01:19.470Z,1031.60
2018-09-25T03:02:19.534Z,1031.58
2018-09-25T03:04:19.998Z,1031.57
2018-09-25T03:05:19.518Z,1031.65
2018-09-25T03:06:19.535Z,1031.66
2018-09-25T03:07:19.545Z,1031.67
2018-09-25T03:08:19.560Z,1031.66
2018-09-25T03:09:19.574Z,1031.69
2018-09-25T03:10:19.576Z,1031.65
2018-09-25T03:11:19.584Z,1031.62
2018-09-25T03:12:19.597Z,1031.59
2018-09-25T03:13:19.607Z,1031.60
2018-09-25T03:14:19.623Z,1031.57
2018-09-25T03:15:19.633Z,1031.61
2018-09-25T03:16:19.643Z,1031.58
2018-09-25T03:17:19.663Z,1031.57
2018-09-25T03:18:19.694Z,1031.55
2018-09-25T03:19:19.758Z,1031.59
2018-09-25T03:20:19.719Z,1031.56
2018-09-25T03:21:19.705Z,1031.56
2018-09-25T03:22:19.711Z,1031.57
2018-09-25T03:23:19.725Z,1031.55
2018-09-25T03:24:19.729Z,1031.56
2018-09-25T03:25:19.768Z,1031.53
2018-09-25T03:26:19.752Z,1031.58
2018-09-25T03:27:19.773Z,1031.60
2018-09-25T03:28:19.786Z,1031.56
2018-09-25T03:29:19.786Z,1031.58
2018-09-25T03:30:19.819Z,1031.55
2018-09-25T03:31:19.810Z,1031.49
2018-09-25T03:32:19.827Z,1031.55
2018-09-25T03:33:19.881Z,1031.51
2018-09-25T03:34:19.997Z,1031.50
2018-09-25T03:37:19.890Z,1031.49
2018-09-25T03:38:19.886Z,1031.49
2018-09-25T03:39:19.897Z,1031.47
2018-09-25T03:40:19.912Z,1031.50
2018-09-25T03:41:19.919Z,1031.45
2018-09-25T03:42:19.935Z,1031.48
2018-09-25T03:43:19.971Z,1031.50
2018-09-25T03:44:19.980Z,1031.53
2018-09-25T03:45:19.969Z,1031.53
2018-09-25T03:46:19.976Z,1031.54
2018-09-25T03:47:19.998Z,1031.57
2018-09-25T03:48:19.999Z,1031.51
2018-09-25T03:49:20.011Z,1031.53
2018-09-25T03:50:20.038Z,1031.45
2018-09-25T03:51:20.044Z,1031.45
2018-09-25T03:52:20.049Z,1031.48
2018-09-25T03:53:20.054Z,1031.46
2018-09-25T03:54:20.071Z,1031.46
2018-09-25T03:55:20.091Z,1031.51
2018-09-25T03:56:20.089Z,1031.53
2018-09-25T03:57:20.104Z,1031.48
2018-09-25T03:58:20.122Z,1031.49
2018-09-25T03:59:20.122Z,1031.51
2018-09-25T04:00:20.136Z,1031.53
2018-09-25T04:01:20.144Z,1031.54
2018-09-25T04:02:20.153Z,1031.59
2018-09-25T04:03:20.172Z,1031.59
2018-09-25T04:04:20.182Z,1031.60
2018-09-25T04:05:20.239Z,1031.62
2018-09-25T04:06:20.356Z,1031.61
2018-09-25T04:07:20.232Z,1031.63
2018-09-25T04:08:20.223Z,1031.65
2018-09-25T04:09:20.256Z,1031.67
2018-09-25T04:10:20.244Z,1031.66
2018-09-25T04:11:20.286Z,1031.69
2018-09-25T04:12:20.275Z,1031.68
2018-09-25T04:13:20.277Z,1031.70
2018-09-25T04:14:20.292Z,1031.71
2018-09-25T04:15:20.298Z,1031.68
2018-09-25T04:16:20.310Z,1031.71
2018-09-25T04:17:20.322Z,1031.72
2018-09-25T04:18:20.336Z,1031.78
2018-09-25T04:19:20.347Z,1031.79
2018-09-25T04:20:20.570Z,1031.77
2018-09-25T04:21:20.383Z,1031.80
2018-09-25T04:22:20.402Z,1031.81
2018-09-25T04:23:20.387Z,1031.81
2018-09-25T04:24:20.398Z,1031.81
2018-09-25T04:25:20.410Z,1031.81
2018-09-25T04:26:20.421Z,1031.83
2018-09-25T04:27:20.440Z,1031.81
2018-09-25T04:28:20.502Z,1031.84
2018-09-25T04:29:20.453Z,1031.86
2018-09-25T04:30:20.497Z,1031.90
2018-09-25T04:31:20.490Z,1031.92
2018-09-25T04:32:20.513Z,1031.89
2018-09-25T04:33:20.502Z,1031.89
2018-09-25T04:34:20.509Z,1031.92
2018-09-25T04:35:20.638Z,1031.94
2018-09-25T04:36:20.972Z,1031.96
2018-09-25T04:37:20.565Z,1031.95
2018-09-25T04:38:20.568Z,1031.99
2018-09-25T04:39:20.569Z,1031.99
2018-09-25T04:40:20.575Z,1031.99
2018-09-25T04:41:20.587Z,1031.97
2018-09-25T04:42:20.609Z,1031.99
2018-09-25T04:43:20.623Z,1032.01
2018-09-25T04:44:20.661Z,1031.99
2018-09-25T04:45:20.631Z,1031.99
2018-09-25T04:46:20.793Z,1032.00
2018-09-25T04:47:20.656Z,1032.02
2018-09-25T04:48:20.663Z,1032.00
2018-09-25T04:49:20.818Z,1032.05
2018-09-25T04:50:20.718Z,1032.01
2018-09-25T04:51:20.694Z,1031.98
2018-09-25T04:52:20.717Z,1031.99
2018-09-25T04:53:20.737Z,1032.02
2018-09-25T04:54:20.732Z,1032.04
2018-09-25T04:55:20.738Z,1032.01
2018-09-25T04:56:20.757Z,1032.01
2018-09-25T04:57:20.763Z,1032.02
2018-09-25T04:58:20.827Z,1032.05
2018-09-25T04:59:20.825Z,1032.06
2018-09-25T05:00:21.103Z,1032.06
2018-09-25T05:01:20.930Z,1031.99
2018-09-25T05:02:20.817Z,1032.02
2018-09-25T05:03:20.825Z,1031.98
2018-09-25T05:04:20.911Z,1032.00
2018-09-25T05:05:20.868Z,1031.98
2018-09-25T05:08:20.886Z,1032.01
2018-09-25T05:09:21.674Z,1032.02
2018-09-25T05:10:20.912Z,1032.06
2018-09-25T05:11:20.929Z,1032.08
2018-09-25T05:12:20.934Z,1032.12
2018-09-25T05:14:21.002Z,1032.10
2018-09-25T05:15:20.973Z,1032.10
2018-09-25T05:16:20.968Z,1032.14
2018-09-25T05:17:20.980Z,1032.19
2018-09-25T05:18:20.994Z,1032.16
2018-09-25T05:19:20.998Z,1032.12
2018-09-25T05:20:21.016Z,1032.08
2018-09-25T05:21:21.020Z,1032.12
2018-09-25T05:22:21.081Z,1032.10
2018-09-25T05:23:21.078Z,1032.09
2018-09-25T05:24:21.054Z,1032.09
2018-09-25T05:25:21.088Z,1032.09
2018-09-25T05:26:21.076Z,1032.09
2018-09-25T05:27:21.093Z,1032.14
2018-09-25T05:28:21.096Z,1032.10
2018-09-25T05:29:21.420Z,1032.11
2018-09-25T05:30:21.117Z,1032.08
2018-09-25T05:31:21.130Z,1032.09
2018-09-25T05:33:21.155Z,1032.13
2018-09-25T05:34:21.177Z,1032.19
2018-09-25T05:35:21.193Z,1032.15
2018-09-25T05:36:21.215Z,1032.17
2018-09-25T05:37:21.198Z,1032.18
2018-09-25T05:40:21.429Z,1032.19
2018-09-25T05:41:21.238Z,1032.19
2018-09-25T05:42:21.248Z,1032.20
2018-09-25T05:43:21.262Z,1032.29
2018-09-25T05:44:21.282Z,1032.22
2018-09-25T05:45:21.281Z,1032.26
2018-09-25T05:46:21.299Z,1032.29
2018-09-25T05:47:21.334Z,1032.29
2018-09-25T05:48:21.327Z,1032.29
2018-09-25T05:49:21.330Z,1032.30
2018-09-25T05:50:21.342Z,1032.32
2018-09-25T05:51:21.354Z,1032.31
2018-09-25T05:52:21.355Z,1032.35
2018-09-25T05:53:21.377Z,1032.34
2018-09-25T05:54:21.381Z,1032.40
2018-09-25T05:55:21.748Z,1032.44
2018-09-25T05:56:21.404Z,1032.42
2018-09-25T05:57:21.418Z,1032.42
2018-09-25T05:58:21.442Z,1032.42
2018-09-25T05:59:21.448Z,1032.43
2018-09-25T06:00:21.454Z,1032.46
2018-09-25T06:01:21.455Z,1032.47
2018-09-25T06:02:21.484Z,1032.45
2018-09-25T06:03:21.480Z,1032.47
2018-09-25T06:04:21.503Z,1032.44
2018-09-25T06:05:21.740Z,1032.48
2018-09-25T06:06:21.557Z,1032.48
2018-09-25T06:07:21.528Z,1032.49
2018-09-25T06:08:21.548Z,1032.48
2018-09-25T06:10:21.674Z,1032.51
2018-09-25T06:11:21.570Z,1032.50
2018-09-25T06:12:21.585Z,1032.54
2018-09-25T06:13:21.590Z,1032.49
2018-09-25T06:14:21.651Z,1032.52
2018-09-25T06:15:21.908Z,1032.53
2018-09-25T06:17:21.635Z,1032.53
2018-09-25T06:18:21.699Z,1032.54
2018-09-25T06:19:21.652Z,1032.53
2018-09-25T06:20:21.681Z,1032.57
2018-09-25T06:21:21.683Z,1032.58
2018-09-25T06:22:21.725Z,1032.61
2018-09-25T06:23:21.714Z,1032.63
2018-09-25T06:24:21.728Z,1032.62
2018-09-25T06:25:21.719Z,1032.62
2018-09-25T06:26:21.733Z,1032.63
2018-09-25T06:27:21.780Z,1032.62
2018-09-25T06:28:21.973Z,1032.65
2018-09-25T06:30:22.124Z,1032.69
2018-09-25T06:31:21.791Z,1032.72
2018-09-25T06:32:21.806Z,1032.70
2018-09-25T06:33:21.811Z,1032.70
2018-09-25T06:34:21.821Z,1032.78
2018-09-25T06:35:21.843Z,1032.73
2018-09-25T06:36:21.843Z,1032.79
2018-09-25T06:37:21.903Z,1032.79
2018-09-25T06:38:21.862Z,1032.80
2018-09-25T06:39:21.877Z,1032.81
2018-09-25T06:40:21.888Z,1032.76
2018-09-25T06:41:21.969Z,1032.79
2018-09-25T06:42:21.911Z,1032.77
2018-09-25T06:43:22.918Z,1032.83
2018-09-25T06:44:21.940Z,1032.79
2018-09-25T06:45:21.940Z,1032.82
2018-09-25T06:46:22.099Z,1032.84
2018-09-25T06:47:22.067Z,1032.82
2018-09-25T06:48:21.971Z,1032.83
2018-09-25T06:49:21.983Z,1032.89
2018-09-25T06:50:21.994Z,1032.87
2018-09-25T06:51:22.026Z,1032.89
2018-09-25T06:52:22.021Z,1032.90
2018-09-25T06:53:22.031Z,1032.96
2018-09-25T06:54:22.055Z,1032.91
2018-09-25T06:55:22.090Z,1032.95
2018-09-25T06:56:22.060Z,1032.92
2018-09-25T06:57:22.094Z,1032.94
2018-09-25T06:58:22.150Z,1032.95
2018-09-25T06:59:22.097Z,1032.93
2018-09-25T07:00:22.161Z,1032.93
2018-09-25T07:01:22.131Z,1032.93
2018-09-25T07:02:22.241Z,1032.98
2018-09-25T07:03:22.141Z,1032.97
2018-09-25T07:04:22.157Z,1032.99
2018-09-25T07:05:22.168Z,1033.00
2018-09-25T07:06:22.184Z,1033.00
2018-09-25T07:07:22.189Z,1033.06
2018-09-25T07:08:22.196Z,1033.09
2018-09-25T07:09:22.410Z,1033.09
2018-09-25T07:10:22.361Z,1033.08
2018-09-25T07:11:22.246Z,1033.08
2018-09-25T07:12:22.241Z,1033.11
2018-09-25T07:13:22.258Z,1033.09
2018-09-25T07:14:22.263Z,1033.11
2018-09-25T07:15:22.275Z,1033.12
2018-09-25T07:16:22.286Z,1033.10
2018-09-25T07:17:22.314Z,1033.12
2018-09-25T07:18:22.325Z,1033.11
2018-09-25T07:19:22.324Z,1033.16
2018-09-25T07:20:22.333Z,1033.14
2018-09-25T07:21:22.650Z,1033.16
2018-09-25T07:22:22.354Z,1033.15
2018-09-25T07:23:22.365Z,1033.15
2018-09-25T07:24:22.370Z,1033.20
2018-09-25T07:25:22.381Z,1033.20
2018-09-25T07:26:22.838Z,1033.17
2018-09-25T07:27:23.446Z,1033.23
2018-09-25T07:28:22.816Z,1033.20
2018-09-25T07:29:22.619Z,1033.21
2018-09-25T07:30:22.442Z,1033.26
2018-09-25T07:31:23.396Z,1033.27
2018-09-25T07:32:22.596Z,1033.26
2018-09-25T07:33:22.639Z,1033.28
2018-09-25T07:34:22.508Z,1033.27
2018-09-25T07:35:22.503Z,1033.30
2018-09-25T07:36:22.713Z,1033.32
2018-09-25T07:37:22.524Z,1033.32
2018-09-25T07:38:22.609Z,1033.32
2018-09-25T07:39:23.057Z,1033.34
2018-09-25T07:40:22.726Z,1033.37
2018-09-25T07:42:23.217Z,1033.43
2018-09-25T07:43:22.627Z,1033.41
2018-09-25T07:44:22.618Z,1033.39
2018-09-25T07:45:22.737Z,1033.37
2018-09-25T07:46:22.743Z,1033.41
2018-09-25T07:47:22.640Z,1033.37
2018-09-25T07:48:22.771Z,1033.39
2018-09-25T07:49:22.666Z,1033.39
2018-09-25T07:50:22.673Z,1033.39
2018-09-25T07:51:22.685Z,1033.43
2018-09-25T07:52:22.699Z,1033.43
2018-09-25T07:53:22.710Z,1033.50
2018-09-25T07:54:22.975Z,1033.51
2018-09-25T07:55:22.785Z,1033.51
2018-09-25T07:56:22.749Z,1033.56
2018-09-25T07:57:22.757Z,1033.57
2018-09-25T07:58:22.785Z,1033.60
2018-09-25T07:59:23.110Z,1033.63
2018-09-25T08:00:22.794Z,1033.65
2018-09-25T08:01:22.807Z,1033.65
2018-09-25T08:02:22.838Z,1033.62
2018-09-25T08:03:23.481Z,1033.63
2018-09-25T08:04:22.898Z,1033.63
2018-09-25T08:05:22.855Z,1033.64
2018-09-25T08:06:22.880Z,1033.64
2018-09-25T08:07:22.877Z,1033.66
2018-09-25T08:08:22.891Z,1033.64
2018-09-25T08:09:22.961Z,1033.65
2018-09-25T08:10:22.915Z,1033.69
2018-09-25T08:11:22.927Z,1033.69
2018-09-25T08:12:22.939Z,1033.69
2018-09-25T08:13:22.974Z,1033.71
2018-09-25T08:14:22.967Z,1033.73
2018-09-25T08:15:23.051Z,1033.73
2018-09-25T08:16:23.104Z,1033.69
2018-09-25T08:17:23.002Z,1033.70
2018-09-25T08:18:23.038Z,1033.70
2018-09-25T08:19:23.036Z,1033.72
2018-09-25T08:20:23.752Z,1033.70
2018-09-25T08:21:23.320Z,1033.71
2018-09-25T08:22:23.078Z,1033.72
2018-09-25T08:23:23.075Z,1033.76
2018-09-25T08:24:23.087Z,1033.74
2018-09-25T08:25:23.103Z,1033.73
2018-09-25T08:26:23.164Z,1033.75
2018-09-25T08:27:23.122Z,1033.75
2018-09-25T08:28:24.213Z,1033.77
2018-09-25T08:29:23.690Z,1033.73
2018-09-25T08:30:23.353Z,1033.71
2018-09-25T08:31:23.187Z,1033.73
2018-09-25T08:32:23.191Z,1033.71
2018-09-25T08:33:23.205Z,1033.75
2018-09-25T08:34:23.210Z,1033.75
2018-09-25T08:35:23.235Z,1033.71
2018-09-25T08:36:23.237Z,1033.72
2018-09-25T08:37:23.251Z,1033.78
2018-09-25T08:38:23.336Z,1033.80
2018-09-25T08:39:23.377Z,1033.77
2018-09-25T08:40:23.303Z,1033.77
2018-09-25T08:41:23.301Z,1033.80
2018-09-25T08:42:23.311Z,1033.80
2018-09-25T08:43:23.325Z,1033.84
2018-09-25T08:44:23.339Z,1033.85
2018-09-25T08:45:23.356Z,1033.84
2018-09-25T08:46:23.363Z,1033.86
2018-09-25T08:47:23.377Z,1033.89
2018-09-25T08:48:23.388Z,1033.90
2018-09-25T08:49:23.399Z,1033.91
2018-09-25T08:50:23.411Z,1033.96
2018-09-25T08:51:23.423Z,1033.99
2018-09-25T08:52:23.438Z,1033.94
2018-09-25T08:53:23.674Z,1033.96
2018-09-25T08:54:23.462Z,1033.98
2018-09-25T08:55:23.879Z,1033.99
2018-09-25T08:56:23.489Z,1033.99
2018-09-25T08:57:23.544Z,1034.02
2018-09-25T08:58:24.416Z,1034.01
2018-09-25T08:59:24.549Z,1034.00
2018-09-25T09:00:23.581Z,1034.02
2018-09-25T09:01:23.908Z,1034.05
2018-09-25T09:02:23.566Z,1034.03
2018-09-25T09:03:23.581Z,1034.03
2018-09-25T09:04:23.602Z,1033.96
2018-09-25T09:05:23.617Z,1033.98
2018-09-25T09:06:23.625Z,1033.92
2018-09-25T09:07:23.628Z,1033.92
2018-09-25T09:08:23.716Z,1033.93
2018-09-25T09:09:23.658Z,1033.95
2018-09-25T09:10:23.692Z,1033.97
2018-09-25T09:11:23.698Z,1033.95
2018-09-25T09:12:23.694Z,1034.02
2018-09-25T09:13:24.155Z,1033.96
2018-09-25T09:14:23.719Z,1033.98
2018-09-25T09:15:23.730Z,1034.01
2018-09-25T09:16:23.780Z,1033.98
2018-09-25T09:17:23.806Z,1034.01
2018-09-25T09:18:23.793Z,1034.02
2018-09-25T09:19:23.785Z,1033.99
2018-09-25T09:20:23.798Z,1034.00
2018-09-25T09:21:23.833Z,1034.00
2018-09-25T09:22:23.823Z,1034.00
2018-09-25T09:23:23.850Z,1034.01
2018-09-25T09:24:23.853Z,1034.03
2018-09-25T09:25:23.861Z,1034.03
2018-09-25T09:26:23.880Z,1034.05
2018-09-25T09:27:23.998Z,1034.05
2018-09-25T09:28:23.901Z,1034.04
2018-09-25T09:29:23.915Z,1034.07
2018-09-25T09:30:23.927Z,1034.04
2018-09-25T09:31:24.142Z,1034.04
2018-09-25T09:32:23.992Z,1034.05
2018-09-25T09:33:24.255Z,1034.03
2018-09-25T09:34:23.984Z,1034.02
2018-09-25T09:35:23.991Z,1034.00
2018-09-25T09:36:24.007Z,1033.97
2018-09-25T09:37:24.018Z,1033.98
2018-09-25T09:38:24.031Z,1033.99
2018-09-25T09:39:24.043Z,1034.04
2018-09-25T09:40:24.057Z,1034.00
2018-09-25T09:41:24.179Z,1033.99
2018-09-25T09:42:24.096Z,1034.01
2018-09-25T09:43:24.099Z,1033.99
2018-09-25T09:44:24.114Z,1033.98
2018-09-25T09:45:24.124Z,1034.00
2018-09-25T09:46:24.136Z,1034.02
2018-09-25T09:47:24.164Z,1033.98
2018-09-25T09:48:24.163Z,1034.00
2018-09-25T09:49:24.774Z,1033.98
2018-09-25T09:50:24.683Z,1033.96
2018-09-25T09:51:24.552Z,1034.00
2018-09-25T09:52:24.256Z,1033.99
2018-09-25T09:53:25.475Z,1033.99
2018-09-25T09:54:24.254Z,1033.97
2018-09-25T09:55:24.272Z,1034.01
2018-09-25T09:56:24.314Z,1034.02
2018-09-25T09:57:24.286Z,1034.00
2018-09-25T09:58:24.297Z,1034.00
2018-09-25T09:59:24.309Z,1033.98
2018-09-25T10:00:25.136Z,1033.99
2018-09-25T10:01:24.445Z,1034.02
2018-09-25T10:02:24.352Z,1034.03
2018-09-25T10:03:24.366Z,1034.03
2018-09-25T10:04:24.382Z,1034.00
2018-09-25T10:05:24.391Z,1034.01
2018-09-25T10:06:25.906Z,1034.03
2018-09-25T10:07:24.434Z,1034.01
2018-09-25T10:08:24.435Z,1034.04
2018-09-25T10:09:24.467Z,1034.09
2018-09-25T10:10:24.804Z,1034.08
2018-09-25T10:11:24.475Z,1034.11
2018-09-25T10:12:24.544Z,1034.08
2018-09-25T10:13:24.536Z,1034.11
2018-09-25T10:14:24.526Z,1034.09
2018-09-25T10:15:24.575Z,1034.09
2018-09-25T10:16:24.794Z,1034.11
2018-09-25T10:17:24.570Z,1034.10
2018-09-25T10:18:24.574Z,1034.12
2018-09-25T10:19:24.596Z,1034.11
2018-09-25T10:20:25.031Z,1034.14
2018-09-25T10:21:24.619Z,1034.14
2018-09-25T10:22:24.631Z,1034.15
2018-09-25T10:23:24.644Z,1034.14
2018-09-25T10:24:24.673Z,1034.18
2018-09-25T10:25:24.675Z,1034.17
2018-09-25T10:26:24.681Z,1034.15
2018-09-25T10:27:24.754Z,1034.17
2018-09-25T10:28:24.717Z,1034.18
2018-09-25T10:29:24.728Z,1034.18
2018-09-25T10:30:24.737Z,1034.18
2018-09-25T10:32:24.810Z,1034.15
2018-09-25T10:33:24.796Z,1034.17
2018-09-25T10:34:24.792Z,1034.21
2018-09-25T10:35:24.831Z,1034.23
2018-09-25T10:36:25.628Z,1034.21
2018-09-25T10:37:25.198Z,1034.20
2018-09-25T10:38:24.857Z,1034.20
2018-09-25T10:39:25.220Z,1034.16
2018-09-25T10:40:24.874Z,1034.11
2018-09-25T10:41:25.036Z,1034.09
2018-09-25T10:42:24.902Z,1034.04
2018-09-25T10:43:25.232Z,1034.07
2018-09-25T10:44:25.233Z,1034.04
2018-09-25T10:45:24.953Z,1034.00
2018-09-25T10:46:24.955Z,1034.02
2018-09-25T10:47:24.965Z,1033.98
2018-09-25T10:48:25.031Z,1034.01
2018-09-25T10:49:24.993Z,1034.00
2018-09-25T10:50:25.022Z,1034.01
2018-09-25T10:51:25.083Z,1034.02
2018-09-25T10:52:25.058Z,1034.05
2018-09-25T10:53:25.058Z,1034.06
2018-09-25T10:54:25.062Z,1034.01
2018-09-25T10:55:25.112Z,1034.03
2018-09-25T10:56:25.088Z,1034.06
2018-09-25T10:57:25.100Z,1034.03
2018-09-25T10:58:25.151Z,1034.01
2018-09-25T10:59:25.128Z,1033.99
2018-09-25T11:00:25.149Z,1034.00
2018-09-25T11:01:25.156Z,1034.02
2018-09-25T11:02:25.169Z,1034.01
2018-09-25T11:03:25.185Z,1034.04
2018-09-25T11:04:25.260Z,1034.01
2018-09-25T11:05:25.216Z,1034.04
2018-09-25T11:06:25.223Z,1034.01
2018-09-25T11:07:25.241Z,1034.04
2018-09-25T11:08:25.264Z,1034.03
2018-09-25T11:09:25.265Z,1034.10
2018-09-25T11:10:25.339Z,1034.06
2018-09-25T11:11:25.293Z,1034.08
2018-09-25T11:12:25.310Z,1034.13
2018-09-25T11:13:25.325Z,1034.13
2018-09-25T11:14:25.362Z,1034.15
2018-09-25T11:15:25.383Z,1034.21
2018-09-25T11:16:25.374Z,1034.19
2018-09-25T11:17:25.891Z,1034.14
2018-09-25T11:18:25.422Z,1034.20
2018-09-25T11:19:25.409Z,1034.24
2018-09-25T11:20:25.424Z,1034.18
2018-09-25T11:21:25.458Z,1034.18
2018-09-25T11:22:25.452Z,1034.15
2018-09-25T11:23:25.494Z,1034.24
2018-09-25T11:24:25.478Z,1034.16
2018-09-25T11:25:25.523Z,1034.17
2018-09-25T11:26:25.516Z,1034.21
2018-09-25T11:27:25.524Z,1034.16
2018-09-25T11:28:25.533Z,1034.13
2018-09-25T11:29:25.563Z,1034.13
2018-09-25T11:30:25.857Z,1034.13
2018-09-25T11:31:25.602Z,1034.09
2018-09-25T11:32:25.599Z,1033.98
2018-09-25T11:33:25.608Z,1033.98
2018-09-25T11:34:25.623Z,1034.00
2018-09-25T11:35:27.466Z,1033.98
2018-09-25T11:37:26.429Z,1033.92
2018-09-25T11:38:25.707Z,1033.97
2018-09-25T11:39:25.703Z,1033.95
2018-09-25T11:40:25.704Z,1033.98
2018-09-25T11:41:25.820Z,1033.97
2018-09-25T11:42:26.222Z,1033.93
2018-09-25T11:43:25.797Z,1033.95
2018-09-25T11:45:27.464Z,1033.95
2018-09-25T11:46:25.805Z,1033.90
2018-09-25T11:47:26.030Z,1033.91
2018-09-25T11:48:25.852Z,1033.83
2018-09-25T11:49:25.856Z,1033.86
2018-09-25T11:50:25.846Z,1033.83
2018-09-25T11:51:25.860Z,1033.80
2018-09-25T11:52:25.875Z,1033.80
2018-09-25T11:53:25.963Z,1033.82
2018-09-25T11:54:25.902Z,1033.82
2018-09-25T11:55:25.915Z,1033.87
2018-09-25T11:56:25.961Z,1033.87
2018-09-25T11:57:25.944Z,1033.93
2018-09-25T11:58:25.962Z,1033.95
2018-09-25T11:59:25.973Z,1034.01
2018-09-25T12:00:26.087Z,1034.00
2018-09-25T12:01:26.001Z,1033.99
2018-09-25T12:02:28.070Z,1034.04
2018-09-25T12:03:26.027Z,1033.98
2018-09-25T12:04:26.046Z,1033.99
2018-09-25T12:05:26.059Z,1033.97
2018-09-25T12:06:26.069Z,1033.94
2018-09-25T12:07:26.082Z,1033.90
2018-09-25T12:08:26.097Z,1033.91
2018-09-25T12:09:26.152Z,1033.80
2018-09-25T12:10:26.129Z,1033.80
2018-09-25T12:11:26.141Z,1033.82
2018-09-25T12:12:26.158Z,1033.87
2018-09-25T12:13:26.605Z,1033.90
2018-09-25T12:14:26.273Z,1033.91
2018-09-25T12:15:26.933Z,1033.91
2018-09-25T12:16:27.526Z,1033.91
2018-09-25T12:18:27.414Z,1033.90
2018-09-25T12:19:26.252Z,1033.88
2018-09-25T12:20:26.379Z,1033.81
2018-09-25T12:21:26.285Z,1033.84
2018-09-25T12:22:26.506Z,1033.83
2018-09-25T12:23:26.375Z,1033.81
2018-09-25T12:24:26.398Z,1033.74
2018-09-25T12:25:26.351Z,1033.72
2018-09-25T12:26:26.358Z,1033.69
2018-09-25T12:27:26.368Z,1033.65